Time;durP1;ratioP1;P1;durP2;ratioP2;P2;SDS_P1;SDS_P2;PMS_P1;PMS_P2;Temp;Humidity;BMP_temperature;BMP_pressure;BME280_temperature;BME280_humidity;BME280_pressure;Samples;Min_cycle;Max_cycle;Signal;HPM_P1;HPM_P2
2021/05/31 00:02:10;;;;;;;3.57;3.27;;;11.00;99.90;;;;;;5020705;28;20451;-80
2021/05/31 00:04:36;;;;;;;5.47;3.60;;;11.00;99.90;;;;;;5020149;28;20442;-80
2021/05/31 00:07:05;;;;;;;4.70;3.10;;;11.00;99.90;;;;;;5021244;28;20462;-80
2021/05/31 00:09:34;;;;;;;4.07;3.70;;;10.90;99.90;;;;;;5021156;28;20449;-79
2021/05/31 00:12:00;;;;;;;4.80;3.90;;;10.90;99.90;;;;;;5022480;28;20618;-79
2021/05/31 00:14:27;;;;;;;6.70;4.13;;;10.90;99.90;;;;;;5022493;28;20453;-81
2021/05/31 00:16:54;;;;;;;4.33;3.93;;;10.90;99.90;;;;;;5021347;28;20454;-80
2021/05/31 00:19:21;;;;;;;4.10;3.67;;;10.80;99.90;;;;;;5021732;28;20460;-80
2021/05/31 00:21:47;;;;;;;4.30;3.53;;;10.80;99.90;;;;;;5021792;28;20426;-80
2021/05/31 00:24:14;;;;;;;3.50;3.20;;;10.80;99.90;;;;;;5019841;28;20433;-80
2021/05/31 00:26:40;;;;;;;4.00;3.50;;;10.80;99.90;;;;;;5020294;28;20475;-80
2021/05/31 00:29:07;;;;;;;5.07;4.40;;;10.70;99.90;;;;;;5020973;28;20422;-80
2021/05/31 00:31:33;;;;;;;6.30;3.77;;;10.70;99.90;;;;;;5022069;28;20426;-80
2021/05/31 00:34:00;;;;;;;5.00;3.83;;;10.70;99.90;;;;;;5026722;28;20491;-80
2021/05/31 00:36:26;;;;;;;4.10;3.70;;;10.60;99.90;;;;;;5025206;28;20417;-81
2021/05/31 00:38:52;;;;;;;5.03;3.60;;;10.60;99.90;;;;;;5026988;28;20461;-79
2021/05/31 00:41:19;;;;;;;5.80;3.83;;;10.60;99.90;;;;;;5030153;28;20453;-79
2021/05/31 00:43:46;;;;;;;3.43;3.13;;;10.50;99.90;;;;;;5028477;28;20453;-81
2021/05/31 00:46:12;;;;;;;4.70;3.87;;;10.50;99.90;;;;;;5029355;28;20413;-81
2021/05/31 00:48:39;;;;;;;5.40;4.30;;;10.40;99.90;;;;;;5023328;28;20447;-80
2021/05/31 00:51:07;;;;;;;5.50;3.80;;;10.40;99.90;;;;;;5023460;28;20482;-78
2021/05/31 00:53:34;;;;;;;18.37;3.90;;;10.50;99.90;;;;;;5025250;28;20449;-80
2021/05/31 00:56:01;;;;;;;5.03;4.63;;;10.40;99.90;;;;;;5025910;28;20452;-80
2021/05/31 00:58:28;;;;;;;6.43;4.07;;;10.40;99.90;;;;;;5030027;28;20480;-78
2021/05/31 01:00:55;;;;;;;4.90;3.90;;;10.40;99.90;;;;;;5029195;28;20451;-79
2021/05/31 01:03:22;;;;;;;4.93;3.90;;;10.40;99.90;;;;;;5027889;28;20470;-80
2021/05/31 01:05:48;;;;;;;7.63;4.60;;;10.40;99.90;;;;;;5030152;28;20418;-79
2021/05/31 01:08:19;;;;;;;5.40;3.40;;;10.40;99.90;;;;;;5024007;28;20534;-79
2021/05/31 01:10:50;;;;;;;5.20;3.67;;;10.50;99.90;;;;;;5024265;28;20443;-80
2021/05/31 01:13:20;;;;;;;5.93;3.40;;;10.30;99.90;;;;;;5044953;22;20462;-82
2021/05/31 01:15:52;;;;;;;3.30;2.83;;;10.30;99.90;;;;;;5041715;28;20426;-81
2021/05/31 01:18:22;;;;;;;4.13;3.60;;;10.30;99.90;;;;;;5041853;28;20421;-81
2021/05/31 01:20:56;;;;;;;4.30;3.13;;;10.30;99.90;;;;;;5040823;28;20964;-81
2021/05/31 01:23:26;;;;;;;4.27;3.50;;;10.30;99.90;;;;;;5040187;28;20470;-82
2021/05/31 01:25:58;;;;;;;12.77;4.03;;;10.20;99.90;;;;;;5044904;28;20413;-82
2021/05/31 01:29:03;;;;;;;4.13;3.60;;;10.30;99.90;;;;;;5042485;28;20431;-82
2021/05/31 01:31:39;;;;;;;4.60;3.40;;;10.20;99.90;;;;;;5043189;28;20820;-82
2021/05/31 01:34:09;;;;;;;3.67;3.30;;;10.10;99.90;;;;;;5043434;28;20441;-82
2021/05/31 01:36:39;;;;;;;4.73;3.90;;;10.00;99.90;;;;;;5044975;28;20493;-82
2021/05/31 01:39:05;;;;;;;4.10;3.70;;;10.00;99.90;;;;;;5042302;28;20481;-82
2021/05/31 01:41:32;;;;;;;7.93;4.53;;;10.00;99.90;;;;;;5042506;28;20446;-82
2021/05/31 01:43:59;;;;;;;5.00;3.53;;;10.00;99.90;;;;;;5043807;28;20466;-83
2021/05/31 01:46:26;;;;;;;4.23;3.83;;;10.00;99.90;;;;;;5044081;28;20425;-82
2021/05/31 01:48:55;;;;;;;4.97;4.50;;;9.90;99.90;;;;;;5043946;28;20421;-82
2021/05/31 01:51:22;;;;;;;3.93;3.30;;;9.90;99.90;;;;;;5052294;28;20476;-82
2021/05/31 01:53:50;;;;;;;3.77;3.37;;;9.90;99.90;;;;;;5051559;28;20466;-82
2021/05/31 01:56:16;;;;;;;3.40;2.73;;;9.90;99.90;;;;;;5042109;28;20442;-82
2021/05/31 01:58:43;;;;;;;4.47;4.03;;;9.80;99.90;;;;;;5041022;28;20428;-82
2021/05/31 02:01:11;;;;;;;5.90;4.60;;;9.80;99.90;;;;;;5049866;28;20447;-81
2021/05/31 02:03:37;;;;;;;4.43;3.50;;;9.80;99.90;;;;;;5054651;28;20471;-82
2021/05/31 02:06:06;;;;;;;6.63;3.43;;;9.70;99.90;;;;;;5043754;28;20485;-82
2021/05/31 02:08:32;;;;;;;6.57;3.73;;;9.70;99.90;;;;;;5040981;28;20454;-82
2021/05/31 02:11:02;;;;;;;4.00;3.30;;;9.70;99.90;;;;;;5041288;28;20417;-82
2021/05/31 02:13:32;;;;;;;4.93;3.90;;;9.60;99.90;;;;;;5041129;28;20512;-82
2021/05/31 02:16:04;;;;;;;7.70;4.50;;;9.60;99.90;;;;;;5042726;28;21043;-84
2021/05/31 02:18:38;;;;;;;3.93;3.47;;;9.60;99.90;;;;;;5045220;28;20430;-83
2021/05/31 02:21:08;;;;;;;3.90;3.50;;;9.50;99.90;;;;;;5051366;28;20732;-82
2021/05/31 02:23:36;;;;;;;8.40;4.43;;;9.50;99.90;;;;;;5048728;28;20466;-84
2021/05/31 02:26:03;;;;;;;4.10;3.80;;;9.50;99.90;;;;;;5052332;28;20431;-83
2021/05/31 02:28:29;;;;;;;4.30;3.90;;;9.50;99.90;;;;;;5049266;28;20421;-83
2021/05/31 02:30:56;;;;;;;3.97;3.57;;;9.40;99.90;;;;;;5056048;28;20498;-83
2021/05/31 02:33:24;;;;;;;4.70;3.70;;;9.40;99.90;;;;;;5044442;28;20438;-82
2021/05/31 02:35:50;;;;;;;5.70;3.90;;;9.40;99.90;;;;;;5041019;28;20526;-83
2021/05/31 02:38:18;;;;;;;6.27;3.90;;;9.40;99.90;;;;;;5041936;28;20498;-83
2021/05/31 02:40:44;;;;;;;3.70;3.40;;;9.30;99.90;;;;;;5039863;28;20449;-83
2021/05/31 02:43:10;;;;;;;10.20;4.73;;;9.20;99.90;;;;;;5041336;28;20421;-83
2021/05/31 02:45:37;;;;;;;5.40;4.50;;;9.20;99.90;;;;;;5041416;28;20453;-83
2021/05/31 02:48:05;;;;;;;6.10;4.30;;;9.20;99.90;;;;;;5041600;28;20431;-83
2021/05/31 02:50:31;;;;;;;3.90;3.47;;;9.30;99.90;;;;;;5039752;28;20531;-83
2021/05/31 02:52:58;;;;;;;10.03;4.77;;;9.50;99.90;;;;;;5038924;28;20428;-82
2021/05/31 02:55:27;;;;;;;7.07;4.47;;;9.40;99.90;;;;;;5039808;28;20501;-82
2021/05/31 02:57:54;;;;;;;5.47;4.17;;;9.40;99.90;;;;;;5040584;28;20458;-82
2021/05/31 03:00:22;;;;;;;5.07;3.50;;;9.30;99.90;;;;;;5051957;28;20417;-82
2021/05/31 03:02:48;;;;;;;6.75;4.20;;;9.20;99.90;;;;;;5042574;28;20725;-82
2021/05/31 03:05:16;;;;;;;5.57;4.33;;;9.10;99.90;;;;;;5041259;28;20493;-82
2021/05/31 03:07:44;;;;;;;8.93;5.60;;;9.10;99.90;;;;;;5041563;28;20418;-82
2021/05/31 03:10:11;;;;;;;4.40;4.00;;;9.10;99.90;;;;;;5041611;28;20474;-84
2021/05/31 03:12:39;;;;;;;6.73;4.40;;;9.10;99.90;;;;;;5041364;28;20425;-82
2021/05/31 03:15:08;;;;;;;7.40;3.70;;;9.10;99.90;;;;;;5040543;28;20582;-82
2021/05/31 03:17:34;;;;;;;5.37;4.03;;;9.00;99.90;;;;;;5041379;28;20423;-82
2021/05/31 03:20:00;;;;;;;5.30;4.77;;;9.00;99.90;;;;;;5043453;28;20453;-82
2021/05/31 03:22:26;;;;;;;6.07;3.90;;;9.00;99.90;;;;;;5046854;28;20460;-82
2021/05/31 03:24:52;;;;;;;5.87;4.30;;;9.00;99.90;;;;;;5059944;28;20454;-82
2021/05/31 03:27:18;;;;;;;8.70;4.70;;;9.00;99.90;;;;;;5060052;28;20409;-81
2021/05/31 03:29:46;;;;;;;8.47;5.27;;;9.10;99.90;;;;;;5057113;28;20493;-81
2021/05/31 03:32:12;;;;;;;5.03;4.40;;;9.10;99.90;;;;;;5055500;28;20450;-81
2021/05/31 03:34:38;;;;;;;4.27;3.87;;;9.20;99.90;;;;;;5056750;28;20466;-80
2021/05/31 03:37:04;;;;;;;7.82;3.83;;;9.20;99.90;;;;;;5053613;28;20441;-80
2021/05/31 03:39:30;;;;;;;8.07;4.10;;;9.20;99.90;;;;;;5056721;28;20204;-82
2021/05/31 03:41:56;;;;;;;7.13;4.37;;;9.20;99.90;;;;;;5048249;28;20487;-78
2021/05/31 03:44:22;;;;;;;4.97;3.90;;;9.20;99.90;;;;;;5054128;28;20478;-81
2021/05/31 03:46:50;;;;;;;4.50;3.97;;;9.40;99.90;;;;;;5048326;28;20446;-81
2021/05/31 03:49:16;;;;;;;5.20;4.07;;;9.60;99.90;;;;;;5047237;28;20478;-81
2021/05/31 03:51:44;;;;;;;6.43;4.43;;;9.60;99.90;;;;;;5046319;28;20429;-82
2021/05/31 03:54:10;;;;;;;4.57;4.17;;;9.40;99.90;;;;;;5046196;28;20470;-82
2021/05/31 03:56:36;;;;;;;6.67;4.10;;;9.30;99.90;;;;;;5045860;28;20505;-81
2021/05/31 03:59:02;;;;;;;5.83;3.93;;;9.30;99.90;;;;;;5045254;28;20465;-81
2021/05/31 04:01:29;;;;;;;6.70;3.83;;;9.50;99.90;;;;;;5045370;28;20816;-81
2021/05/31 04:03:57;;;;;;;7.13;4.23;;;9.60;99.90;;;;;;5043907;28;20626;-81
2021/05/31 04:06:29;;;;;;;7.00;4.67;;;9.60;99.90;;;;;;5043854;28;20450;-81
2021/05/31 04:11:40;;;;;;;4.93;4.00;;;9.80;99.90;;;;;;5043098;28;20462;-81
2021/05/31 04:14:08;;;;;;;4.87;4.07;;;9.90;99.90;;;;;;5043265;28;21098;-81
2021/05/31 04:16:35;;;;;;;4.30;3.87;;;10.10;99.90;;;;;;5043250;28;20446;-81
2021/05/31 04:19:03;;;;;;;4.90;4.33;;;10.10;99.90;;;;;;5043423;28;20432;-81
2021/05/31 04:21:30;;;;;;;4.97;4.23;;;10.00;99.90;;;;;;5042985;28;20554;-81
2021/05/31 04:23:56;;;;;;;4.40;3.70;;;9.90;99.90;;;;;;5042440;28;20853;-82
2021/05/31 04:26:25;;;;;;;6.20;4.57;;;9.90;99.90;;;;;;5047985;28;20434;-82
2021/05/31 04:28:51;;;;;;;6.50;4.70;;;9.80;99.90;;;;;;5056288;28;20425;-82
2021/05/31 04:31:17;;;;;;;8.53;4.83;;;9.90;99.90;;;;;;5044389;28;20471;-82
2021/05/31 04:33:44;;;;;;;7.00;4.80;;;10.00;99.90;;;;;;5043307;28;20444;-82
2021/05/31 04:36:11;;;;;;;6.17;4.70;;;9.90;99.90;;;;;;5057732;28;20449;-80
2021/05/31 04:38:38;;;;;;;8.30;4.93;;;9.80;99.90;;;;;;5051528;28;20442;-82
2021/05/31 04:41:05;;;;;;;6.40;4.70;;;9.70;99.90;;;;;;5044628;28;20502;-82
2021/05/31 04:43:31;;;;;;;5.77;4.50;;;9.90;99.90;;;;;;5052348;28;20433;-84
2021/05/31 04:45:57;;;;;;;6.73;5.17;;;10.20;99.90;;;;;;5051551;28;20434;-82
2021/05/31 04:48:23;;;;;;;5.00;3.77;;;10.30;99.90;;;;;;5045440;28;20413;-82
2021/05/31 04:50:56;;;;;;;7.57;4.80;;;10.20;99.90;;;;;;5050882;28;20457;-81
2021/05/31 04:53:24;;;;;;;5.10;4.60;;;10.40;99.90;;;;;;5054408;28;20442;-81
2021/05/31 04:55:50;;;;;;;4.80;4.13;;;10.50;99.90;;;;;;5048759;28;20417;-81
2021/05/31 04:58:17;;;;;;;5.53;4.40;;;10.60;99.90;;;;;;5052797;28;20882;-82
2021/05/31 05:00:43;;;;;;;6.30;5.07;;;10.70;99.90;;;;;;5044876;28;20709;-82
2021/05/31 05:03:09;;;;;;;6.53;4.70;;;10.60;99.90;;;;;;5045115;28;20975;-81
2021/05/31 05:05:35;;;;;;;5.97;5.30;;;10.70;99.90;;;;;;5045116;28;20465;-82
2021/05/31 05:08:01;;;;;;;9.60;5.03;;;10.70;99.90;;;;;;5045946;28;20409;-80
2021/05/31 05:10:28;;;;;;;7.63;4.80;;;10.60;99.90;;;;;;5046890;28;20530;-82
2021/05/31 05:12:54;;;;;;;8.97;4.80;;;10.30;99.90;;;;;;5045775;28;20453;-82
2021/05/31 05:15:23;;;;;;;7.90;5.03;;;10.40;99.90;;;;;;5042686;28;20466;-82
2021/05/31 05:17:50;;;;;;;7.80;4.60;;;10.40;99.90;;;;;;5042894;28;20450;-82
2021/05/31 05:20:19;;;;;;;6.50;5.57;;;10.40;99.90;;;;;;5044490;28;20438;-82
2021/05/31 05:22:45;;;;;;;6.47;5.03;;;10.50;99.90;;;;;;5044938;28;20454;-83
2021/05/31 05:25:12;;;;;;;6.23;5.33;;;10.70;99.90;;;;;;5043604;28;20467;-83
2021/05/31 05:27:41;;;;;;;9.40;5.80;;;10.70;99.90;;;;;;5046465;28;20428;-84
2021/05/31 05:30:09;;;;;;;9.10;4.97;;;11.00;99.90;;;;;;5046103;28;20543;-84
2021/05/31 05:32:36;;;;;;;6.30;4.63;;;11.00;99.90;;;;;;5045083;28;20446;-85
2021/05/31 05:35:09;;;;;;;5.30;3.97;;;11.00;99.90;;;;;;5044265;28;20565;-84
2021/05/31 05:37:52;;;;;;;7.50;4.60;;;11.20;99.90;;;;;;5044768;28;20431;-83
2021/05/31 05:43:15;;;;;;;5.17;4.40;;;11.60;99.90;;;;;;5045016;28;20435;-83
2021/05/31 05:45:57;;;;;;;10.50;4.93;;;11.70;99.90;;;;;;5046928;28;20430;-82
2021/05/31 05:48:28;;;;;;;10.10;5.20;;;11.80;99.90;;;;;;5046413;28;20426;-82
2021/05/31 05:51:04;;;;;;;6.77;5.27;;;11.90;99.90;;;;;;5045098;28;20499;-83
2021/05/31 05:53:32;;;;;;;6.13;4.10;;;11.90;99.90;;;;;;5046837;28;20531;-85
2021/05/31 05:55:59;;;;;;;10.40;5.50;;;11.60;99.90;;;;;;5046647;28;20409;-83
2021/05/31 05:58:29;;;;;;;5.13;4.60;;;11.70;99.90;;;;;;5047458;28;20489;-83
2021/05/31 06:00:56;;;;;;;5.03;4.60;;;11.80;99.90;;;;;;5046802;28;20438;-83
2021/05/31 06:03:23;;;;;;;5.60;4.30;;;12.00;99.90;;;;;;5046845;28;20539;-83
2021/05/31 06:05:49;;;;;;;9.07;4.60;;;12.00;99.90;;;;;;5045290;28;20867;-83
2021/05/31 06:08:16;;;;;;;6.67;5.20;;;12.00;99.90;;;;;;5043436;28;20447;-82
2021/05/31 06:10:42;;;;;;;7.43;5.10;;;12.10;99.90;;;;;;5043624;28;20886;-83
2021/05/31 06:13:08;;;;;;;5.70;4.67;;;11.90;99.90;;;;;;5043206;28;20450;-83
2021/05/31 06:15:36;;;;;;;7.47;4.50;;;11.90;99.90;;;;;;5044495;28;20434;-82
2021/05/31 06:18:03;;;;;;;10.13;5.00;;;12.00;99.90;;;;;;5044514;28;20504;-83
2021/05/31 06:20:29;;;;;;;5.40;4.90;;;11.90;99.90;;;;;;5051894;28;20458;-80
2021/05/31 06:22:55;;;;;;;6.80;4.80;;;12.00;99.90;;;;;;5057507;28;20457;-81
2021/05/31 06:25:21;;;;;;;5.70;5.13;;;12.10;99.90;;;;;;5057630;28;20478;-83
2021/05/31 06:27:48;;;;;;;7.00;5.30;;;12.20;99.90;;;;;;5057290;28;20430;-84
2021/05/31 06:30:20;;;;;;;7.20;4.97;;;12.20;99.90;;;;;;5057700;28;20433;-84
2021/05/31 06:32:47;;;;;;;5.60;5.00;;;12.10;99.90;;;;;;5057907;28;20439;-84
2021/05/31 06:35:14;;;;;;;6.27;4.47;;;12.10;99.90;;;;;;5057850;28;20466;-83
2021/05/31 06:37:40;;;;;;;8.00;5.10;;;12.20;99.90;;;;;;5055152;28;20477;-83
2021/05/31 06:40:10;;;;;;;5.10;4.40;;;12.40;99.90;;;;;;5049681;28;20502;-83
2021/05/31 06:42:37;;;;;;;9.00;4.90;;;12.50;99.90;;;;;;5047207;28;20443;-83
2021/05/31 06:45:05;;;;;;;7.03;4.90;;;12.70;99.90;;;;;;5048712;28;20584;-83
2021/05/31 06:47:31;;;;;;;6.30;4.70;;;12.80;99.90;;;;;;5048711;28;20445;-83
2021/05/31 06:49:58;;;;;;;5.30;4.37;;;12.90;99.90;;;;;;5048318;28;20440;-84
2021/05/31 06:52:24;;;;;;;6.50;4.87;;;13.20;99.90;;;;;;5046685;28;20450;-83
2021/05/31 06:54:50;;;;;;;8.30;5.10;;;13.30;99.90;;;;;;5055848;28;20446;-83
2021/05/31 06:57:16;;;;;;;5.87;5.27;;;13.30;99.90;;;;;;5057221;28;20450;-83
2021/05/31 06:59:43;;;;;;;10.10;5.37;;;13.30;99.90;;;;;;5037981;28;20443;-83
2021/05/31 07:02:09;;;;;;;6.37;5.40;;;13.50;99.90;;;;;;5052524;28;20549;-83
2021/05/31 07:04:35;;;;;;;7.10;4.67;;;13.50;99.90;;;;;;5052431;28;20470;-83
2021/05/31 07:07:03;;;;;;;11.30;6.30;;;13.60;99.90;;;;;;5053540;28;20442;-83
2021/05/31 07:09:29;;;;;;;8.37;6.10;;;13.70;99.90;;;;;;5052980;28;20486;-79
2021/05/31 07:11:56;;;;;;;11.50;5.53;;;13.50;99.90;;;;;;5052516;28;20453;-80
2021/05/31 07:14:32;;;;;;;10.80;5.00;;;13.50;99.90;;;;;;5075166;22;20467;-79
2021/05/31 07:16:58;;;;;;;7.70;5.20;;;13.50;99.90;;;;;;5084121;28;20433;-81
2021/05/31 07:19:25;;;;;;;5.17;4.63;;;13.60;99.90;;;;;;5082319;28;20867;-80
2021/05/31 07:21:51;;;;;;;4.90;4.40;;;13.70;99.90;;;;;;5093801;28;20403;-79
2021/05/31 07:24:19;;;;;;;5.93;4.60;;;13.70;99.90;;;;;;5093545;28;20461;-79
2021/05/31 07:26:45;;;;;;;5.03;4.60;;;13.80;99.90;;;;;;5092499;28;20441;-79
2021/05/31 07:29:11;;;;;;;10.40;5.17;;;14.00;99.90;;;;;;5092219;28;20429;-80
2021/05/31 07:31:38;;;;;;;7.50;5.07;;;14.10;99.90;;;;;;5086223;28;20798;-80
2021/05/31 07:34:04;;;;;;;10.97;6.10;;;14.10;99.90;;;;;;5086732;28;20456;-79
2021/05/31 07:36:30;;;;;;;7.73;4.90;;;14.10;99.90;;;;;;5089322;28;20444;-83
2021/05/31 07:38:57;;;;;;;4.90;4.40;;;14.10;99.90;;;;;;5088713;28;20448;-78
2021/05/31 07:41:24;;;;;;;9.03;4.90;;;14.10;99.90;;;;;;5083717;28;20433;-80
2021/05/31 07:43:50;;;;;;;8.40;4.60;;;14.30;99.90;;;;;;5081529;28;20981;-82
2021/05/31 07:46:16;;;;;;;7.07;5.30;;;14.50;99.90;;;;;;5084499;28;20440;-79
2021/05/31 07:48:43;;;;;;;8.30;4.90;;;14.70;99.90;;;;;;5078763;28;20883;-79
2021/05/31 07:51:17;;;;;;;8.03;5.70;;;;;;;;;;5078085;28;20454;-78
2021/05/31 07:54:23;;;;;;;5.17;4.67;;;14.80;99.90;;;;;;5078668;28;20994;-81
2021/05/31 07:57:24;;;;;;;8.30;5.03;;;14.80;99.90;;;;;;5086044;28;20440;-80
2021/05/31 08:05:59;;;;;;;6.63;6.03;;;14.80;99.90;;;;;;5088963;28;20400;-81
2021/05/31 08:08:25;;;;;;;6.03;5.00;;;14.80;99.90;;;;;;5093397;28;20443;-86
2021/05/31 08:10:52;;;;;;;8.40;4.73;;;14.90;99.90;;;;;;5089206;28;20525;-83
2021/05/31 08:13:19;;;;;;;7.00;5.10;;;14.90;99.90;;;;;;5088890;28;20452;-85
2021/05/31 08:15:45;;;;;;;8.03;4.50;;;15.10;99.90;;;;;;5088678;28;20838;-84
2021/05/31 08:18:14;;;;;;;7.13;5.30;;;15.20;99.90;;;;;;5090657;28;20444;-85
2021/05/31 08:20:41;;;;;;;7.27;5.50;;;15.30;99.90;;;;;;5092869;28;20500;-84
2021/05/31 08:23:07;;;;;;;8.07;5.80;;;15.50;99.90;;;;;;5089464;28;20881;-85
2021/05/31 08:25:34;;;;;;;6.57;4.80;;;15.70;99.90;;;;;;5089978;28;20460;-83
2021/05/31 08:28:01;;;;;;;9.20;5.40;;;15.60;99.90;;;;;;5089179;28;20448;-83
2021/05/31 08:30:29;;;;;;;5.37;4.87;;;15.40;99.90;;;;;;5095172;28;20589;-80
2021/05/31 08:32:57;;;;;;;5.93;5.03;;;15.30;99.90;;;;;;5100645;28;20436;-81
2021/05/31 08:35:23;;;;;;;6.10;4.73;;;15.40;99.90;;;;;;5099942;28;20476;-82
2021/05/31 08:37:49;;;;;;;6.73;4.63;;;15.60;99.90;;;;;;5099441;28;20444;-83
2021/05/31 08:40:15;;;;;;;6.10;4.80;;;15.80;99.90;;;;;;5094375;28;20957;-83
2021/05/31 08:42:43;;;;;;;5.37;4.40;;;15.70;99.90;;;;;;5081880;28;20997;-81
2021/05/31 08:45:12;;;;;;;8.63;4.40;;;15.60;99.90;;;;;;5083479;28;20472;-81
2021/05/31 08:47:42;;;;;;;8.10;4.90;;;15.60;99.90;;;;;;5085099;28;20445;-82
2021/05/31 08:50:09;;;;;;;5.27;4.43;;;15.80;99.90;;;;;;5085788;28;20458;-83
2021/05/31 08:52:36;;;;;;;4.93;4.47;;;15.80;99.90;;;;;;5085296;28;20452;-84
2021/05/31 08:55:05;;;;;;;6.13;5.27;;;16.00;99.90;;;;;;5089018;28;20468;-82
2021/05/31 08:57:31;;;;;;;9.13;4.50;;;15.70;99.90;;;;;;5089692;28;20500;-83
2021/05/31 08:59:57;;;;;;;11.23;5.03;;;16.10;99.90;;;;;;5090161;28;20459;-82
2021/05/31 09:02:24;;;;;;;7.80;4.70;;;16.30;99.90;;;;;;5096301;28;20467;-81
2021/05/31 09:04:54;;;;;;;5.00;3.50;;;16.40;99.90;;;;;;5097445;28;21043;-83
2021/05/31 09:07:21;;;;;;;5.23;3.80;;;;;;;;;;5092442;28;20429;-82
2021/05/31 09:09:48;;;;;;;7.47;3.93;;;16.80;99.90;;;;;;5090725;28;20476;-85
2021/05/31 09:12:20;;;;;;;5.07;4.20;;;16.60;99.90;;;;;;5093819;28;20440;-81
2021/05/31 09:14:54;;;;;;;7.00;4.03;;;16.60;99.90;;;;;;5093760;28;20473;-83
2021/05/31 09:17:24;;;;;;;7.60;3.80;;;16.40;99.90;;;;;;5088244;28;20437;-84
2021/05/31 09:19:51;;;;;;;5.33;3.73;;;16.50;99.90;;;;;;5089233;28;20458;-83
2021/05/31 09:22:17;;;;;;;5.50;5.10;;;16.50;99.90;;;;;;5091549;28;20444;-84
2021/05/31 09:24:54;;;;;;;6.80;3.80;;;16.70;99.90;;;;;;5090740;28;20465;-84
2021/05/31 09:27:20;;;;;;;4.23;3.83;;;16.60;99.90;;;;;;5088710;28;20433;-84
2021/05/31 09:29:54;;;;;;;5.13;4.73;;;16.60;99.90;;;;;;5086869;28;20476;-83
2021/05/31 09:32:20;;;;;;;5.47;4.27;;;16.70;99.90;;;;;;5087149;28;20428;-83
2021/05/31 09:34:58;;;;;;;6.70;3.40;;;16.70;99.90;;;;;;5090944;28;20543;-83
2021/05/31 09:37:24;;;;;;;5.90;4.47;;;16.80;99.90;;;;;;5090480;28;20530;-83
2021/05/31 09:39:58;;;;;;;5.60;4.40;;;17.00;99.90;;;;;;5087139;28;20456;-82
2021/05/31 09:42:24;;;;;;;6.83;4.30;;;17.10;99.90;;;;;;5085359;28;20437;-80
2021/05/31 09:44:59;;;;;;;3.47;3.17;;;17.10;99.90;;;;;;5097272;28;20449;-83
2021/05/31 09:47:29;;;;;;;6.47;3.77;;;17.10;99.90;;;;;;5097925;28;20420;-84
2021/05/31 09:49:55;;;;;;;6.00;3.93;;;17.00;99.90;;;;;;5091098;28;20476;-85
2021/05/31 09:52:23;;;;;;;6.53;3.47;;;17.00;99.90;;;;;;5088655;28;20444;-83
2021/05/31 09:54:50;;;;;;;4.90;3.50;;;17.20;99.90;;;;;;5085906;28;20472;-84
2021/05/31 09:57:19;;;;;;;5.43;3.13;;;17.30;99.90;;;;;;5085337;28;20436;-84
2021/05/31 09:59:47;;;;;;;3.60;3.30;;;17.30;99.90;;;;;;5086931;28;20453;-84
2021/05/31 10:02:17;;;;;;;6.63;2.80;;;17.20;99.90;;;;;;5088445;28;20417;-83
2021/05/31 10:04:53;;;;;;;2.90;2.60;;;17.40;99.90;;;;;;5086892;28;20480;-83
2021/05/31 10:07:26;;;;;;;5.13;3.13;;;17.50;99.90;;;;;;5085042;28;20475;-83
2021/05/31 10:09:53;;;;;;;5.53;3.93;;;17.50;99.90;;;;;;5084246;28;20571;-83
2021/05/31 10:12:19;;;;;;;4.33;2.73;;;17.60;99.90;;;;;;5083491;28;20456;-83
2021/05/31 10:14:52;;;;;;;3.73;2.47;;;17.50;99.90;;;;;;5085325;28;20475;-87
2021/05/31 10:17:24;;;;;;;3.40;3.10;;;16.70;99.90;;;;;;5083610;28;20481;-85
2021/05/31 10:19:53;;;;;;;4.03;2.13;;;16.40;99.90;;;;;;5084498;28;20436;-87
2021/05/31 10:22:20;;;;;;;4.20;2.40;;;17.70;99.40;;;;;;5082431;28;20444;-87
2021/05/31 10:24:53;;;;;;;3.30;3.00;;;17.50;98.00;;;;;;5081227;28;20472;-86
2021/05/31 10:27:20;;;;;;;2.00;1.90;;;17.50;95.30;;;;;;5081913;28;20468;-87
2021/05/31 10:29:53;;;;;;;4.83;2.17;;;17.40;96.10;;;;;;5081615;28;20466;-86
2021/05/31 10:32:19;;;;;;;4.07;2.83;;;17.60;92.80;;;;;;5082406;28;20843;-86
2021/05/31 10:34:48;;;;;;;2.60;2.20;;;16.90;96.90;;;;;;5084912;28;20468;-87
2021/05/31 10:37:19;;;;;;;2.70;1.77;;;18.30;94.20;;;;;;5085965;28;20454;-88
2021/05/31 10:39:56;;;;;;;1.97;1.87;;;17.60;92.70;;;;;;5085421;28;20502;-86
2021/05/31 10:42:24;;;;;;;2.50;2.30;;;18.80;94.40;;;;;;5085529;28;20452;-86
2021/05/31 10:44:50;;;;;;;2.50;1.97;;;17.80;90.60;;;;;;5085758;28;20480;-86
2021/05/31 10:47:26;;;;;;;2.83;2.30;;;18.90;90.60;;;;;;5085200;28;20432;-89
2021/05/31 10:49:57;;;;;;;10.67;3.07;;;17.70;93.90;;;;;;5083245;28;20426;-87
2021/05/31 10:52:34;;;;;;;9.67;2.80;;;18.60;91.10;;;;;;5088002;28;20455;-87
2021/05/31 11:01:50;;;;;;;2.43;2.23;;;20.20;88.30;;;;;;5080366;28;20496;-87
2021/05/31 11:04:23;;;;;;;4.97;2.37;;;17.70;91.10;;;;;;5087786;28;20469;-77
2021/05/31 11:06:52;;;;;;;3.20;2.00;;;17.20;90.60;;;;;;5084241;28;20472;-77
2021/05/31 11:09:21;;;;;;;3.87;2.20;;;18.10;80.50;;;;;;5083638;28;20940;-78
2021/05/31 11:11:52;;;;;;;3.23;2.10;;;18.10;77.40;;;;;;5084452;28;20485;-78
2021/05/31 11:14:32;;;;;;;2.40;2.20;;;18.10;81.30;;;;;;5086169;28;20475;-78
2021/05/31 11:17:02;;;;;;;7.80;5.50;;;18.20;81.00;;;;;;5083063;28;20445;-78
2021/05/31 11:19:33;;;;;;;3.77;2.40;;;18.30;90.90;;;;;;5084338;28;20436;-78
2021/05/31 11:22:00;;;;;;;3.73;2.50;;;18.30;85.90;;;;;;5083293;28;20475;-79
2021/05/31 11:24:26;;;;;;;2.67;2.43;;;18.40;82.10;;;;;;5084620;28;20462;-78
2021/05/31 11:26:58;;;;;;;7.80;3.33;;;18.50;83.10;;;;;;5081723;28;20443;-79
2021/05/31 11:29:24;;;;;;;4.90;4.10;;;18.50;76.90;;;;;;5085284;28;20459;-78
2021/05/31 11:31:50;;;;;;;3.07;2.70;;;18.60;89.30;;;;;;5085459;28;20486;-78
2021/05/31 11:34:17;;;;;;;3.30;2.80;;;18.70;90.60;;;;;;5090900;28;20474;-78
2021/05/31 11:36:44;;;;;;;2.77;2.10;;;18.80;91.90;;;;;;5086536;28;20779;-77
2021/05/31 11:39:12;;;;;;;3.50;3.20;;;18.80;83.00;;;;;;5085868;28;20453;-78
2021/05/31 11:41:42;;;;;;;2.63;2.40;;;18.80;90.90;;;;;;5092643;28;20849;-78
2021/05/31 11:44:10;;;;;;;4.70;2.03;;;18.80;85.70;;;;;;5092351;28;20485;-78
2021/05/31 11:46:48;;;;;;;3.33;2.20;;;18.80;81.10;;;;;;5087754;28;20560;-78
2021/05/31 11:49:15;;;;;;;2.60;2.40;;;18.80;80.50;;;;;;5087670;28;20463;-79
2021/05/31 11:51:53;;;;;;;7.90;4.73;;;18.90;88.20;;;;;;5083545;28;20421;-79
2021/05/31 11:54:20;;;;;;;5.37;3.50;;;19.00;90.60;;;;;;5082697;28;20478;-78
2021/05/31 11:56:46;;;;;;;4.00;2.40;;;19.10;90.50;;;;;;5087681;28;20450;-79
2021/05/31 11:59:16;;;;;;;3.73;2.10;;;19.20;83.20;;;;;;5091121;28;20823;-78
2021/05/31 12:01:52;;;;;;;2.40;2.20;;;19.10;81.30;;;;;;5082294;28;20474;-78
2021/05/31 12:04:19;;;;;;;4.40;3.27;;;19.30;85.00;;;;;;5087505;28;20545;-78
2021/05/31 12:06:56;;;;;;;2.60;2.17;;;19.50;81.70;;;;;;5093340;28;20572;-79
2021/05/31 12:09:22;;;;;;;3.33;2.70;;;19.40;85.80;;;;;;5087795;28;21031;-79
2021/05/31 12:11:50;;;;;;;4.60;2.83;;;19.40;82.20;;;;;;5089508;28;20448;-78
2021/05/31 12:14:19;;;;;;;4.60;3.90;;;19.40;89.60;;;;;;5082657;28;20601;-78
2021/05/31 12:16:52;;;;;;;2.90;2.60;;;19.60;91.90;;;;;;5086915;28;20968;-78
2021/05/31 12:19:19;;;;;;;5.33;3.27;;;19.70;82.70;;;;;;5084480;28;20959;-78
2021/05/31 12:21:46;;;;;;;3.00;2.80;;;19.80;91.80;;;;;;5081417;28;20482;-78
2021/05/31 12:24:12;;;;;;;2.60;2.40;;;19.90;85.50;;;;;;5080156;28;20472;-79
2021/05/31 12:26:40;;;;;;;2.50;2.30;;;19.90;80.00;;;;;;5091091;28;20443;-78
2021/05/31 12:29:10;;;;;;;4.80;2.17;;;19.80;75.00;;;;;;5090249;28;20451;-78
2021/05/31 12:31:36;;;;;;;3.00;2.70;;;19.80;87.00;;;;;;5084725;28;20524;-78
2021/05/31 12:34:03;;;;;;;2.80;2.37;;;19.80;90.20;;;;;;5093766;28;20461;-79
2021/05/31 12:36:29;;;;;;;3.13;2.60;;;19.90;83.10;;;;;;5085614;28;20445;-78
2021/05/31 12:38:57;;;;;;;2.57;2.23;;;19.80;76.40;;;;;;5083576;28;20452;-79
2021/05/31 12:41:24;;;;;;;3.40;2.27;;;19.80;73.30;;;;;;5082952;28;21038;-78
2021/05/31 12:43:51;;;;;;;4.40;3.47;;;19.80;72.80;;;;;;5084773;28;20468;-78
2021/05/31 12:46:17;;;;;;;3.17;2.10;;;19.90;78.60;;;;;;5080030;28;20487;-77
2021/05/31 12:48:48;;;;;;;8.53;2.53;;;19.80;75.10;;;;;;5083460;28;20458;-79
2021/05/31 12:51:14;;;;;;;6.43;5.63;;;19.80;72.90;;;;;;5078557;28;20425;-78
2021/05/31 12:53:44;;;;;;;3.13;2.20;;;19.90;82.60;;;;;;5080295;28;20440;-78
2021/05/31 12:56:11;;;;;;;2.83;2.33;;;19.90;69.10;;;;;;5081221;28;20444;-79
2021/05/31 12:58:38;;;;;;;2.13;1.90;;;19.90;65.60;;;;;;5082549;28;20491;-79
2021/05/31 13:01:05;;;;;;;4.53;2.40;;;19.90;62.20;;;;;;5084545;28;21080;-78
2021/05/31 13:03:32;;;;;;;3.17;2.40;;;19.90;60.70;;;;;;5080958;28;20471;-78
2021/05/31 13:05:59;;;;;;;5.33;2.50;;;19.80;62.50;;;;;;5082156;28;20461;-78
2021/05/31 13:08:26;;;;;;;4.60;2.57;;;20.00;72.60;;;;;;5081069;28;20594;-78
2021/05/31 13:10:56;;;;;;;5.10;2.90;;;20.10;62.20;;;;;;5082761;28;20859;-78
2021/05/31 13:13:33;;;;;;;4.30;2.07;;;19.90;60.00;;;;;;5084469;28;20853;-79